Time;durP1;ratioP1;P1;durP2;ratioP2;P2;SDS_P1;SDS_P2;PMS_P1;PMS_P2;Temp;Humidity;BMP_temperature;BMP_pressure;BME280_temperature;BME280_humidity;BME280_pressure;Samples;Min_cycle;Max_cycle;Signal;HPM_P1;HPM_P2
2023/04/24 00:00:15;;;;;;;1.57;0.80;;;12.40;99.90;;;;;;5012779;28;20187;-76
2023/04/24 00:02:46;;;;;;;0.90;0.70;;;12.40;99.90;;;;;;5011150;28;20210;-76
2023/04/24 00:05:17;;;;;;;1.10;0.80;;;12.40;99.90;;;;;;5012181;28;20932;-75
2023/04/24 00:07:44;;;;;;;1.13;0.80;;;12.40;99.90;;;;;;5012130;28;20465;-76
2023/04/24 00:10:11;;;;;;;1.17;0.70;;;12.40;99.90;;;;;;5012237;28;20658;-75
2023/04/24 00:12:37;;;;;;;2.50;1.30;;;12.30;99.90;;;;;;5012306;28;20410;-75
2023/04/24 00:15:04;;;;;;;1.40;0.80;;;12.30;99.90;;;;;;5011981;28;20414;-75
2023/04/24 00:17:30;;;;;;;1.90;1.00;;;12.30;99.90;;;;;;5012059;28;20480;-76
2023/04/24 00:19:58;;;;;;;1.37;0.90;;;12.30;99.90;;;;;;5011974;28;20411;-76
2023/04/24 00:22:25;;;;;;;1.83;1.10;;;12.20;99.90;;;;;;4999674;28;20215;-75
2023/04/24 00:24:51;;;;;;;1.00;0.83;;;12.20;99.90;;;;;;4992538;28;20477;-76
2023/04/24 00:27:17;;;;;;;1.20;1.10;;;12.20;99.90;;;;;;4991995;28;20462;-75
2023/04/24 00:29:42;;;;;;;1.23;1.10;;;12.20;99.90;;;;;;4992464;28;20266;-75
2023/04/24 00:32:08;;;;;;;1.10;0.90;;;12.10;99.90;;;;;;4992300;28;20223;-76
2023/04/24 00:34:34;;;;;;;1.27;0.93;;;12.10;99.90;;;;;;5007507;28;20186;-75
2023/04/24 00:37:00;;;;;;;1.20;1.00;;;12.10;99.90;;;;;;4992177;28;20188;-76
2023/04/24 00:39:26;;;;;;;1.33;1.10;;;12.10;99.90;;;;;;4992187;28;20202;-77
2023/04/24 00:41:52;;;;;;;1.60;1.50;;;12.00;99.90;;;;;;5021325;28;20442;-76
2023/04/24 00:44:18;;;;;;;4.20;1.77;;;12.00;99.90;;;;;;5011548;28;20245;-76
2023/04/24 00:46:44;;;;;;;1.60;1.50;;;12.00;99.90;;;;;;5011907;28;20461;-76
2023/04/24 00:49:10;;;;;;;2.27;1.20;;;12.00;99.90;;;;;;5015880;28;20191;-76
2023/04/24 00:51:36;;;;;;;1.57;1.40;;;12.00;99.90;;;;;;5016345;28;20194;-75
2023/04/24 00:54:02;;;;;;;1.37;1.27;;;12.00;99.90;;;;;;5012193;28;20436;-76
2023/04/24 00:56:28;;;;;;;1.33;1.23;;;12.00;99.90;;;;;;5011785;28;20899;-75
2023/04/24 00:58:54;;;;;;;2.27;1.50;;;11.90;99.90;;;;;;5011368;28;20222;-77
2023/04/24 01:01:21;;;;;;;1.80;1.50;;;11.90;99.90;;;;;;5010151;28;20438;-75
2023/04/24 01:03:48;;;;;;;1.57;1.47;;;11.90;99.90;;;;;;5011227;28;20787;-76
2023/04/24 01:06:15;;;;;;;2.23;1.60;;;11.80;99.90;;;;;;5011272;28;20565;-77
2023/04/24 01:08:41;;;;;;;1.77;1.67;;;11.80;99.90;;;;;;5011015;28;20417;-76
2023/04/24 01:11:07;;;;;;;2.00;1.80;;;11.80;99.90;;;;;;5011010;28;20460;-76
2023/04/24 01:13:34;;;;;;;1.50;1.33;;;11.90;99.90;;;;;;5009773;28;20410;-76
2023/04/24 01:16:00;;;;;;;3.03;1.37;;;11.80;99.90;;;;;;5011151;28;20275;-75
2023/04/24 01:18:27;;;;;;;1.60;1.50;;;11.80;99.90;;;;;;5010826;28;20429;-76
2023/04/24 01:20:56;;;;;;;1.70;1.40;;;11.80;99.90;;;;;;5010707;28;20441;-76
2023/04/24 01:23:22;;;;;;;1.67;1.57;;;11.70;99.90;;;;;;5009458;28;20452;-76
2023/04/24 01:25:49;;;;;;;2.77;1.90;;;11.70;99.90;;;;;;5025992;28;20737;-76
2023/04/24 01:28:16;;;;;;;2.07;1.70;;;11.70;99.90;;;;;;5010633;28;20261;-76
2023/04/24 01:30:42;;;;;;;1.63;1.40;;;11.70;99.90;;;;;;5010557;28;20452;-75
2023/04/24 01:33:08;;;;;;;1.60;1.50;;;11.70;99.90;;;;;;5009379;28;20418;-76
2023/04/24 01:35:35;;;;;;;2.20;2.00;;;11.70;99.90;;;;;;5010824;28;20572;-76
2023/04/24 01:38:02;;;;;;;2.93;1.87;;;11.70;99.90;;;;;;4992811;28;20500;-76
2023/04/24 01:40:27;;;;;;;4.37;2.83;;;11.70;99.90;;;;;;5010154;28;20530;-76
2023/04/24 01:42:54;;;;;;;3.37;2.37;;;11.70;99.90;;;;;;5010441;28;20841;-76
2023/04/24 01:45:19;;;;;;;1.97;1.77;;;11.70;99.90;;;;;;5009149;28;20465;-76
2023/04/24 01:47:46;;;;;;;2.10;2.00;;;11.70;99.90;;;;;;5010084;28;20462;-75
2023/04/24 01:50:12;;;;;;;3.37;2.70;;;11.60;99.90;;;;;;5010120;28;20628;-76
2023/04/24 01:52:38;;;;;;;2.30;1.90;;;11.60;99.90;;;;;;5009093;28;20463;-76
2023/04/24 01:55:05;;;;;;;2.40;1.73;;;11.60;99.90;;;;;;5008795;28;20471;-76
2023/04/24 01:57:31;;;;;;;2.33;2.13;;;11.60;99.90;;;;;;5010294;28;20820;-76
2023/04/24 01:59:57;;;;;;;2.33;2.13;;;11.60;99.90;;;;;;5008903;28;20462;-76
2023/04/24 02:02:27;;;;;;;2.50;2.00;;;11.60;99.90;;;;;;5009917;28;20474;-76
2023/04/24 02:04:56;;;;;;;2.00;1.90;;;11.60;99.90;;;;;;5025140;28;20187;-75
2023/04/24 02:07:22;;;;;;;2.10;1.90;;;11.60;99.90;;;;;;5009815;28;20520;-75
2023/04/24 02:09:48;;;;;;;2.80;2.50;;;11.50;99.90;;;;;;5009930;28;20927;-75
2023/04/24 02:12:15;;;;;;;5.77;3.57;;;11.50;99.90;;;;;;5008731;28;20434;-75
2023/04/24 02:14:42;;;;;;;4.47;3.10;;;11.50;99.90;;;;;;5009606;28;20733;-75
2023/04/24 02:17:07;;;;;;;7.20;3.80;;;11.50;99.90;;;;;;5009826;28;20934;-75
2023/04/24 02:19:33;;;;;;;3.90;3.60;;;11.50;99.90;;;;;;5009705;28;20426;-77
2023/04/24 02:21:59;;;;;;;3.90;3.50;;;11.40;99.90;;;;;;4999654;28;20628;-75
2023/04/24 02:24:24;;;;;;;7.80;5.63;;;11.30;99.90;;;;;;4988595;28;20638;-76
2023/04/24 02:26:50;;;;;;;5.00;4.47;;;11.20;99.90;;;;;;4990088;28;20233;-76
2023/04/24 02:29:16;;;;;;;5.50;4.90;;;11.20;99.90;;;;;;4989972;28;20183;-76
2023/04/24 02:31:41;;;;;;;5.80;5.20;;;11.20;99.90;;;;;;5005164;28;20676;-75
2023/04/24 02:34:07;;;;;;;7.10;4.47;;;11.10;99.90;;;;;;4989820;28;20183;-77
2023/04/24 02:36:33;;;;;;;5.80;4.80;;;11.10;99.90;;;;;;5005263;28;20180;-76
2023/04/24 02:38:58;;;;;;;6.00;5.37;;;11.00;99.90;;;;;;4989528;28;20205;-76
2023/04/24 02:41:24;;;;;;;5.93;5.33;;;11.00;99.90;;;;;;4998380;28;20210;-76
2023/04/24 02:43:50;;;;;;;6.20;5.60;;;11.00;99.90;;;;;;5009314;28;20186;-75
2023/04/24 02:46:15;;;;;;;6.63;5.07;;;11.00;99.90;;;;;;5009504;28;20225;-75
2023/04/24 02:48:41;;;;;;;5.37;4.83;;;11.00;99.90;;;;;;5008072;28;20183;-75
2023/04/24 02:51:07;;;;;;;6.60;5.47;;;11.00;99.90;;;;;;5009156;28;20203;-77
2023/04/24 02:53:32;;;;;;;6.63;6.00;;;11.00;99.90;;;;;;5008969;28;20269;-76
2023/04/24 02:55:58;;;;;;;7.70;6.10;;;11.00;99.90;;;;;;5009383;28;20202;-76
2023/04/24 02:58:24;;;;;;;7.10;6.40;;;11.00;99.90;;;;;;5009101;28;20183;-76
2023/04/24 03:00:55;;;;;;;9.13;6.90;;;11.00;99.90;;;;;;5008964;28;20579;-75
2023/04/24 03:03:21;;;;;;;6.77;6.10;;;11.00;99.90;;;;;;5008914;28;20488;-76
2023/04/24 03:05:46;;;;;;;8.23;6.77;;;11.00;99.90;;;;;;5009517;28;20411;-75
2023/04/24 03:08:14;;;;;;;8.77;6.60;;;11.00;99.90;;;;;;5024024;28;20461;-75
2023/04/24 03:10:40;;;;;;;7.63;6.77;;;11.00;99.90;;;;;;5008914;28;20195;-76
2023/04/24 03:13:05;;;;;;;7.53;6.57;;;11.00;99.90;;;;;;5008922;28;20766;-75
2023/04/24 03:15:31;;;;;;;7.70;7.00;;;11.10;99.90;;;;;;5008816;28;20195;-76
2023/04/24 03:17:57;;;;;;;7.60;6.80;;;11.00;99.90;;;;;;5008879;28;20205;-76
2023/04/24 03:20:23;;;;;;;8.10;6.87;;;10.90;99.90;;;;;;5009451;28;20194;-77
2023/04/24 03:22:48;;;;;;;9.70;6.83;;;10.90;99.90;;;;;;4992040;28;20195;-77
2023/04/24 03:25:14;;;;;;;7.37;6.67;;;10.90;99.90;;;;;;4989064;28;20921;-77
2023/04/24 03:27:40;;;;;;;10.47;6.80;;;10.90;99.90;;;;;;4989326;28;20677;-76
2023/04/24 03:30:09;;;;;;;10.37;7.20;;;10.90;99.90;;;;;;4989046;28;20239;-77
2023/04/24 03:32:34;;;;;;;9.70;7.10;;;11.00;99.90;;;;;;4989653;28;20463;-77
2023/04/24 03:35:00;;;;;;;7.87;7.07;;;11.00;99.90;;;;;;4988981;28;20415;-77
2023/04/24 03:37:26;;;;;;;11.60;8.53;;;11.00;99.90;;;;;;4989224;28;20199;-77
2023/04/24 03:39:52;;;;;;;8.73;7.57;;;10.90;99.90;;;;;;4989060;28;20622;-76
2023/04/24 03:42:18;;;;;;;10.00;7.80;;;11.00;99.90;;;;;;5006701;28;20508;-77
2023/04/24 03:44:43;;;;;;;9.13;7.60;;;10.90;99.90;;;;;;5008560;28;20418;-77
2023/04/24 03:47:09;;;;;;;9.20;8.30;;;10.90;99.90;;;;;;5008736;28;20211;-77
2023/04/24 03:49:35;;;;;;;10.53;8.57;;;10.90;99.90;;;;;;5008717;28;20179;-77
2023/04/24 03:52:01;;;;;;;9.63;8.00;;;10.90;99.90;;;;;;5007487;28;20199;-77
2023/04/24 03:54:26;;;;;;;11.13;9.37;;;10.90;99.90;;;;;;5008669;28;20577;-77
2023/04/24 03:56:52;;;;;;;10.17;8.17;;;10.90;99.90;;;;;;5008607;28;20263;-77
2023/04/24 03:59:18;;;;;;;11.23;8.63;;;10.90;99.90;;;;;;5008876;28;20695;-77
2023/04/24 04:01:43;;;;;;;10.03;8.30;;;10.90;99.90;;;;;;5008618;28;20198;-77
2023/04/24 04:04:09;;;;;;;10.30;8.07;;;10.90;99.90;;;;;;5007453;28;20187;-77
2023/04/24 04:06:36;;;;;;;10.03;8.80;;;10.90;99.90;;;;;;5008662;28;20572;-77
2023/04/24 04:09:02;;;;;;;9.73;7.80;;;10.90;99.90;;;;;;5024003;28;20179;-77
2023/04/24 04:11:28;;;;;;;8.93;7.93;;;11.00;99.90;;;;;;5008841;28;20965;-77
2023/04/24 04:13:54;;;;;;;10.17;8.30;;;10.90;99.90;;;;;;5008536;28;20414;-76
2023/04/24 04:16:20;;;;;;;9.10;8.20;;;10.90;99.90;;;;;;5008909;28;20183;-76
2023/04/24 04:18:45;;;;;;;11.50;8.10;;;10.90;99.90;;;;;;5007587;28;20184;-76
2023/04/24 04:21:11;;;;;;;10.13;9.13;;;10.90;99.90;;;;;;5006094;28;20226;-77
2023/04/24 04:23:37;;;;;;;10.20;9.10;;;10.90;99.90;;;;;;4988928;28;20198;-77
2023/04/24 04:26:03;;;;;;;10.20;9.20;;;10.90;99.90;;;;;;4991681;28;20234;-77
2023/04/24 04:28:31;;;;;;;10.33;8.80;;;10.90;99.90;;;;;;4992848;28;20255;-76
2023/04/24 04:30:57;;;;;;;10.40;8.90;;;10.90;99.90;;;;;;4992503;28;20804;-77
2023/04/24 04:33:24;;;;;;;9.33;8.10;;;10.90;99.90;;;;;;4992329;28;20543;-77
2023/04/24 04:35:53;;;;;;;11.40;9.50;;;10.90;99.90;;;;;;4992701;28;20511;-77
2023/04/24 04:38:19;;;;;;;9.80;8.60;;;10.90;99.90;;;;;;4991107;28;20450;-77
2023/04/24 04:40:46;;;;;;;13.00;8.87;;;10.90;99.90;;;;;;4998325;28;20950;-77
2023/04/24 04:43:13;;;;;;;10.53;8.53;;;10.90;99.90;;;;;;5012130;28;20418;-77
2023/04/24 04:45:40;;;;;;;9.83;8.80;;;10.90;99.90;;;;;;5011438;28;20955;-76
2023/04/24 04:48:07;;;;;;;12.20;10.00;;;10.90;99.90;;;;;;5011564;28;20458;-76
2023/04/24 04:50:33;;;;;;;11.50;8.80;;;10.90;99.90;;;;;;5015229;28;20540;-76
2023/04/24 04:52:58;;;;;;;11.00;8.63;;;10.90;99.90;;;;;;5021068;28;20894;-76
2023/04/24 04:55:25;;;;;;;12.93;9.13;;;10.90;99.90;;;;;;5018813;28;20415;-76
2023/04/24 04:57:51;;;;;;;10.70;9.60;;;10.90;99.90;;;;;;5010909;28;20199;-75
2023/04/24 05:00:16;;;;;;;10.60;9.17;;;10.90;99.90;;;;;;5020091;28;20418;-77
2023/04/24 05:02:42;;;;;;;11.20;9.27;;;10.90;99.90;;;;;;5032499;28;20474;-77
2023/04/24 05:05:08;;;;;;;10.40;9.40;;;10.90;99.90;;;;;;5032142;28;20546;-76
2023/04/24 05:07:34;;;;;;;13.53;9.00;;;10.90;99.90;;;;;;5032105;28;20217;-77
2023/04/24 05:10:00;;;;;;;11.77;9.67;;;10.90;99.90;;;;;;5031703;28;20413;-77
2023/04/24 05:12:26;;;;;;;9.77;8.47;;;10.90;99.90;;;;;;5030816;28;20767;-76
2023/04/24 05:14:52;;;;;;;10.37;9.03;;;10.90;99.90;;;;;;5031865;28;20244;-77
2023/04/24 05:17:18;;;;;;;9.63;8.50;;;10.90;99.90;;;;;;5031832;28;20480;-77
2023/04/24 05:19:44;;;;;;;10.80;9.20;;;10.90;99.90;;;;;;5031945;28;20265;-77
2023/04/24 05:22:11;;;;;;;8.70;7.73;;;10.90;99.90;;;;;;5019833;28;20282;-77
2023/04/24 05:24:37;;;;;;;9.60;8.17;;;10.90;99.90;;;;;;5012403;28;20266;-78
2023/04/24 05:27:04;;;;;;;11.07;8.80;;;11.00;99.90;;;;;;5031267;28;20513;-77
2023/04/24 05:29:31;;;;;;;8.03;7.23;;;10.90;99.90;;;;;;5015512;28;20430;-77
2023/04/24 05:31:57;;;;;;;10.57;8.23;;;10.90;99.90;;;;;;5015809;28;20450;-77
2023/04/24 05:34:23;;;;;;;7.80;7.10;;;10.90;99.90;;;;;;5023446;28;20456;-78
2023/04/24 05:36:50;;;;;;;8.70;7.80;;;10.90;99.90;;;;;;5024962;28;20532;-77
2023/04/24 05:39:16;;;;;;;9.50;8.43;;;10.80;99.90;;;;;;5026590;28;20202;-78
2023/04/24 05:41:42;;;;;;;8.73;7.70;;;10.80;99.90;;;;;;5021615;28;20453;-77
2023/04/24 05:44:08;;;;;;;8.83;7.90;;;10.80;99.90;;;;;;5026820;28;20421;-77
2023/04/24 05:46:33;;;;;;;9.30;8.23;;;10.80;99.90;;;;;;5014593;28;20500;-76
2023/04/24 05:48:59;;;;;;;8.93;8.07;;;10.70;99.90;;;;;;5015708;28;20225;-77
2023/04/24 05:51:25;;;;;;;9.90;8.30;;;10.70;99.90;;;;;;5019957;28;20249;-78
2023/04/24 05:53:51;;;;;;;9.70;8.60;;;10.70;99.90;;;;;;5020221;28;20174;-78
2023/04/24 05:56:18;;;;;;;8.90;7.93;;;10.70;99.90;;;;;;5013140;28;20411;-78
2023/04/24 05:58:44;;;;;;;9.80;8.80;;;10.70;99.90;;;;;;5010791;28;20950;-76
2023/04/24 06:01:10;;;;;;;8.83;7.90;;;10.70;99.90;;;;;;5015127;28;20489;-78
2023/04/24 06:03:36;;;;;;;9.23;8.33;;;10.70;99.90;;;;;;5016024;28;20402;-76
2023/04/24 06:06:01;;;;;;;11.23;8.23;;;10.60;99.90;;;;;;5019080;28;20182;-78
2023/04/24 06:08:27;;;;;;;12.57;9.40;;;10.60;99.90;;;;;;5021118;28;20181;-77
2023/04/24 06:10:53;;;;;;;9.07;7.13;;;10.60;99.90;;;;;;5020080;28;20430;-77
2023/04/24 06:13:18;;;;;;;8.30;7.50;;;10.60;99.90;;;;;;5019532;28;20183;-77
2023/04/24 06:15:45;;;;;;;9.53;7.47;;;10.50;99.90;;;;;;5020238;28;20234;-77
2023/04/24 06:18:10;;;;;;;9.73;7.33;;;10.50;99.90;;;;;;5018764;28;20273;-77
2023/04/24 06:20:36;;;;;;;15.10;7.40;;;10.50;99.90;;;;;;5026119;28;20469;-77
2023/04/24 06:23:02;;;;;;;10.23;7.13;;;10.50;99.90;;;;;;5015882;28;20245;-77
2023/04/24 06:25:28;;;;;;;7.83;7.00;;;10.50;99.90;;;;;;5018602;28;20185;-78
2023/04/24 06:27:54;;;;;;;6.83;6.10;;;10.50;99.90;;;;;;5020146;28;20266;-78
2023/04/24 06:30:20;;;;;;;7.50;6.80;;;10.50;99.90;;;;;;5018616;28;20414;-78
2023/04/24 06:32:46;;;;;;;7.57;6.27;;;10.60;99.90;;;;;;5018612;28;20398;-78
2023/04/24 06:35:12;;;;;;;8.40;5.80;;;10.60;99.90;;;;;;5034960;28;20179;-77
2023/04/24 06:37:39;;;;;;;7.23;6.37;;;10.60;99.90;;;;;;5033192;28;20251;-77
2023/04/24 06:40:06;;;;;;;8.10;5.90;;;10.60;99.90;;;;;;5018353;28;20414;-78
2023/04/24 06:42:32;;;;;;;7.63;6.30;;;10.50;99.90;;;;;;4999052;28;20498;-78
2023/04/24 06:44:57;;;;;;;7.00;6.30;;;10.50;99.90;;;;;;4999717;28;20439;-77
2023/04/24 06:47:23;;;;;;;7.27;6.50;;;10.50;99.90;;;;;;4999535;28;20699;-78
2023/04/24 06:49:50;;;;;;;7.40;6.40;;;10.50;99.90;;;;;;5021024;28;20275;-78
2023/04/24 06:52:16;;;;;;;9.20;6.33;;;10.50;99.90;;;;;;5009226;28;20266;-78
2023/04/24 06:54:42;;;;;;;7.90;7.10;;;10.50;99.90;;;;;;5007029;28;20419;-78
2023/04/24 06:57:08;;;;;;;7.73;6.23;;;10.50;99.90;;;;;;5024087;28;20267;-77
2023/04/24 06:59:34;;;;;;;7.27;6.50;;;10.50;99.90;;;;;;5015684;28;20246;-77
2023/04/24 07:02:00;;;;;;;7.37;6.63;;;10.50;99.90;;;;;;5018354;28;20473;-78
2023/04/24 07:04:26;;;;;;;8.40;6.37;;;10.50;99.90;;;;;;5033923;28;20187;-78
2023/04/24 07:06:54;;;;;;;7.77;6.60;;;10.60;99.90;;;;;;5018981;28;20242;-78
2023/04/24 07:09:20;;;;;;;6.60;5.90;;;10.60;99.90;;;;;;5018413;28;20778;-77
2023/04/24 07:11:46;;;;;;;6.80;6.10;;;10.50;99.90;;;;;;5033934;28;20426;-78
2023/04/24 07:14:12;;;;;;;6.57;6.00;;;10.50;99.90;;;;;;5018440;28;20477;-78
2023/04/24 07:16:38;;;;;;;7.60;6.00;;;10.60;99.90;;;;;;5010649;28;20618;-77
2023/04/24 07:19:03;;;;;;;6.27;5.70;;;10.50;99.90;;;;;;5017431;28;20922;-78
2023/04/24 07:21:31;;;;;;;6.10;4.93;;;10.50;99.90;;;;;;5010464;28;20854;-78
2023/04/24 07:23:58;;;;;;;4.90;4.50;;;10.50;99.90;;;;;;5011439;28;20191;-77
2023/04/24 07:26:23;;;;;;;4.73;4.23;;;10.50;99.90;;;;;;4980742;28;20602;-78
2023/04/24 07:28:49;;;;;;;4.80;4.30;;;10.60;99.90;;;;;;4997587;28;20590;-78
2023/04/24 07:31:15;;;;;;;4.00;3.60;;;10.60;99.90;;;;;;4997216;28;20219;-77
2023/04/24 07:33:41;;;;;;;4.20;3.80;;;10.50;99.90;;;;;;4997764;28;20183;-77
2023/04/24 07:36:07;;;;;;;5.30;4.20;;;10.50;99.90;;;;;;4998257;28;21002;-78
2023/04/24 07:38:32;;;;;;;3.77;3.37;;;10.40;99.90;;;;;;4996979;28;20560;-78
2023/04/24 07:40:58;;;;;;;4.20;3.80;;;10.50;99.90;;;;;;5005467;28;20292;-77
2023/04/24 07:43:24;;;;;;;4.63;4.10;;;10.50;99.90;;;;;;5018340;28;20188;-74
2023/04/24 07:45:52;;;;;;;4.57;4.17;;;10.50;99.90;;;;;;5018107;28;20181;-77
2023/04/24 07:48:18;;;;;;;3.80;3.50;;;10.50;99.90;;;;;;5016578;28;20214;-78
2023/04/24 07:50:44;;;;;;;3.80;3.50;;;10.50;99.90;;;;;;5017998;28;20453;-78
2023/04/24 07:53:10;;;;;;;2.80;2.60;;;10.50;99.90;;;;;;5017325;28;20175;-78
2023/04/24 07:55:36;;;;;;;2.80;2.50;;;10.50;99.90;;;;;;5017987;28;20907;-78
2023/04/24 07:58:02;;;;;;;2.53;2.10;;;10.50;99.90;;;;;;5017403;28;20175;-77
2023/04/24 08:00:27;;;;;;;2.00;1.80;;;10.50;99.90;;;;;;5033827;28;20249;-78
2023/04/24 08:02:53;;;;;;;2.73;2.00;;;10.50;99.90;;;;;;5021756;28;20180;-78
2023/04/24 08:05:19;;;;;;;1.60;1.27;;;10.50;99.90;;;;;;5021950;28;20189;-78
2023/04/24 08:07:48;;;;;;;1.53;1.20;;;10.40;99.90;;;;;;5021800;28;20246;-78
2023/04/24 08:10:14;;;;;;;1.00;0.70;;;10.30;99.90;;;;;;5034208;28;20178;-77
2023/04/24 08:12:40;;;;;;;1.23;0.70;;;10.40;99.90;;;;;;5012440;28;20414;-77
2023/04/24 08:15:07;;;;;;;1.37;0.60;;;10.40;99.90;;;;;;5012179;28;20475;-78
2023/04/24 08:17:33;;;;;;;1.03;0.60;;;10.40;99.90;;;;;;5012182;28;20414;-78
2023/04/24 08:20:01;;;;;;;0.60;0.53;;;10.30;99.90;;;;;;5027614;28;20770;-77
2023/04/24 08:22:30;;;;;;;0.83;0.73;;;10.40;99.90;;;;;;4998386;28;20439;-79
2023/04/24 08:24:56;;;;;;;1.17;0.90;;;10.30;99.90;;;;;;4991325;28;20438;-77
2023/04/24 08:27:23;;;;;;;1.63;0.80;;;10.30;99.90;;;;;;4991276;28;20508;-78
2023/04/24 08:29:49;;;;;;;0.80;0.77;;;10.20;99.90;;;;;;4992366;28;20920;-78
2023/04/24 08:32:15;;;;;;;1.20;0.60;;;10.20;99.90;;;;;;4991305;28;20427;-78
2023/04/24 08:34:40;;;;;;;1.80;0.63;;;10.20;99.90;;;;;;5007158;28;20415;-78
2023/04/24 08:37:06;;;;;;;0.70;0.70;;;10.10;99.90;;;;;;4991543;28;20180;-78
2023/04/24 08:39:32;;;;;;;1.30;0.60;;;10.10;99.90;;;;;;4992043;28;20194;-77
2023/04/24 08:42:05;;;;;;;1.43;0.60;;;10.10;99.90;;;;;;5007108;28;20202;-77
2023/04/24 08:44:32;;;;;;;2.10;1.00;;;10.00;99.90;;;;;;5014083;28;20269;-79
2023/04/24 08:46:58;;;;;;;0.97;0.87;;;10.00;99.90;;;;;;5014046;28;20489;-79
2023/04/24 08:49:25;;;;;;;0.80;0.70;;;10.00;99.90;;;;;;5013132;28;20403;-78
2023/04/24 08:51:52;;;;;;;1.33;1.07;;;10.00;99.90;;;;;;5014392;28;20429;-79
2023/04/24 08:54:18;;;;;;;1.37;0.73;;;10.00;99.90;;;;;;4997007;28;20422;-78
2023/04/24 08:56:45;;;;;;;1.13;0.90;;;10.00;99.90;;;;;;5013109;28;20807;-79
2023/04/24 08:59:11;;;;;;;1.17;0.90;;;10.00;99.90;;;;;;5013377;28;20494;-80
2023/04/24 09:01:39;;;;;;;1.63;1.10;;;10.10;99.90;;;;;;5013052;28;20430;-80
2023/04/24 09:04:07;;;;;;;1.17;0.90;;;10.10;99.90;;;;;;5013872;28;20788;-79
2023/04/24 09:06:34;;;;;;;1.70;1.17;;;10.00;99.90;;;;;;5014311;28;20460;-80
2023/04/24 09:09:01;;;;;;;0.80;0.80;;;10.00;99.90;;;;;;5029098;28;20818;-78
2023/04/24 09:11:27;;;;;;;1.67;1.40;;;10.00;99.90;;;;;;5012457;28;20434;-80
2023/04/24 09:13:54;;;;;;;1.30;1.20;;;10.00;99.90;;;;;;5012357;28;20410;-80
2023/04/24 09:16:22;;;;;;;1.57;1.40;;;10.00;99.90;;;;;;5014343;28;21126;-78
2023/04/24 09:18:48;;;;;;;1.57;1.30;;;9.90;99.90;;;;;;5013465;28;20445;-78
2023/04/24 09:21:14;;;;;;;3.00;1.70;;;10.00;99.90;;;;;;5009243;28;20453;-77
2023/04/24 09:23:41;;;;;;;1.57;1.47;;;10.10;99.90;;;;;;4990063;28;20200;-77
2023/04/24 09:26:08;;;;;;;1.63;1.53;;;10.10;99.90;;;;;;4991628;28;20494;-77
2023/04/24 09:28:39;;;;;;;2.80;1.20;;;10.10;99.90;;;;;;4990435;28;20992;-77
2023/04/24 09:31:18;;;;;;;2.67;1.33;;;10.10;99.90;;;;;;4992294;28;20474;-78
2023/04/24 09:34:21;;;;;;;2.90;1.60;;;10.20;99.90;;;;;;5007219;28;20411;-79
2023/04/24 09:36:46;;;;;;;1.60;1.50;;;10.10;99.90;;;;;;4972176;28;20489;-77
2023/04/24 09:39:16;;;;;;;1.57;1.47;;;10.10;99.90;;;;;;4989359;28;20791;-77
2023/04/24 09:41:54;;;;;;;2.00;1.80;;;10.10;99.90;;;;;;5017717;28;20242;-77
2023/04/24 09:44:20;;;;;;;2.23;2.03;;;10.20;99.90;;;;;;4992997;28;20414;-79
2023/04/24 09:46:59;;;;;;;1.93;1.80;;;10.20;99.90;;;;;;5024636;28;20982;-77
2023/04/24 09:49:29;;;;;;;3.03;2.50;;;10.20;99.90;;;;;;5010756;28;21150;-77
2023/04/24 09:52:04;;;;;;;3.40;3.07;;;10.10;99.90;;;;;;5009319;28;20437;-77
2023/04/24 09:54:30;;;;;;;4.63;3.40;;;10.10;99.90;;;;;;5024497;28;20428;-79
2023/04/24 09:56:56;;;;;;;3.90;3.60;;;10.10;99.90;;;;;;5025523;28;20418;-78
2023/04/24 09:59:22;;;;;;;4.30;3.33;;;10.10;99.90;;;;;;5009320;28;20636;-78
2023/04/24 10:01:49;;;;;;;3.40;3.10;;;10.10;99.90;;;;;;5010743;28;21025;-79
2023/04/24 10:04:24;;;;;;;4.20;3.27;;;10.10;99.90;;;;;;5009278;28;20954;-79
2023/04/24 10:06:51;;;;;;;3.73;3.43;;;10.20;99.90;;;;;;4992342;28;20465;-78
2023/04/24 10:09:24;;;;;;;2.97;2.67;;;10.20;99.90;;;;;;5009267;28;20496;-79
2023/04/24 10:11:52;;;;;;;3.80;2.30;;;10.20;99.90;;;;;;5010325;28;20514;-78
2023/04/24 10:14:23;;;;;;;3.80;3.40;;;10.20;99.90;;;;;;5010205;28;20409;-77
2023/04/24 10:16:52;;;;;;;3.63;3.03;;;10.10;99.90;;;;;;4992482;28;20422;-79
2023/04/24 10:19:20;;;;;;;6.80;2.70;;;10.20;99.90;;;;;;5009053;28;20477;-78
2023/04/24 10:21:46;;;;;;;3.53;3.00;;;10.20;99.90;;;;;;5001698;28;20442;-77
2023/04/24 10:24:14;;;;;;;3.37;3.00;;;10.10;99.90;;;;;;4990201;28;20845;-77
2023/04/24 10:26:40;;;;;;;3.87;3.37;;;10.10;99.90;;;;;;4990215;28;20462;-78
2023/04/24 10:29:09;;;;;;;4.20;3.23;;;10.10;99.90;;;;;;4990396;28;20419;-77
2023/04/24 10:31:37;;;;;;;3.37;3.07;;;10.00;99.90;;;;;;4990175;28;20430;-78
2023/04/24 10:34:05;;;;;;;4.63;3.87;;;10.00;99.90;;;;;;4990238;28;20491;-78
2023/04/24 10:36:34;;;;;;;4.40;4.00;;;10.10;99.90;;;;;;4988916;28;20452;-78
2023/04/24 10:39:03;;;;;;;4.93;4.13;;;10.00;99.90;;;;;;5005279;28;20443;-77
2023/04/24 10:41:31;;;;;;;4.53;4.13;;;10.10;99.90;;;;;;5000727;28;20444;-78
2023/04/24 10:44:10;;;;;;;5.53;4.93;;;10.20;99.90;;;;;;5008415;28;20414;-77
2023/04/24 10:46:37;;;;;;;5.80;4.67;;;10.20;99.90;;;;;;5008501;28;20552;-79
2023/04/24 10:49:08;;;;;;;6.43;4.80;;;10.20;99.90;;;;;;5008551;28;20462;-77
2023/04/24 10:51:53;;;;;;;5.03;4.10;;;10.30;99.90;;;;;;5009456;28;20798;-77
2023/04/24 10:54:28;;;;;;;6.30;5.43;;;10.20;99.90;;;;;;5008334;28;20657;-77
2023/04/24 10:57:23;;;;;;;6.83;5.53;;;10.20;99.90;;;;;;5024805;28;20418;-78
2023/04/24 11:00:15;;;;;;;6.83;4.80;;;10.20;99.90;;;;;;5011732;28;20425;-76
2023/04/24 11:02:48;;;;;;;7.00;5.50;;;10.20;99.90;;;;;;5013575;28;20442;-78
2023/04/24 11:05:17;;;;;;;8.27;6.03;;;10.20;99.90;;;;;;5014491;28;20418;-78
2023/04/24 11:08:12;;;;;;;8.90;5.80;;;10.20;99.90;;;;;;4994449;28;20457;-77
2023/04/24 11:10:44;;;;;;;8.80;6.50;;;10.20;99.90;;;;;;5006770;28;20453;-77
2023/04/24 11:13:10;;;;;;;9.73;5.87;;;10.20;99.90;;;;;;5008636;28;20418;-77
2023/04/24 11:15:36;;;;;;;9.00;6.50;;;10.30;99.90;;;;;;4992432;28;20817;-79
2023/04/24 11:18:02;;;;;;;10.70;4.97;;;10.40;99.90;;;;;;4991742;28;20205;-77
2023/04/24 11:20:27;;;;;;;6.20;5.43;;;10.40;99.90;;;;;;4991591;28;20210;-78
2023/04/24 11:22:54;;;;;;;10.43;5.97;;;10.40;99.90;;;;;;4992962;28;20199;-77
2023/04/24 11:25:22;;;;;;;10.10;5.90;;;10.40;99.90;;;;;;4988456;28;20676;-78
2023/04/24 11:27:49;;;;;;;10.53;5.80;;;10.40;99.90;;;;;;4989416;28;20970;-78
2023/04/24 11:30:20;;;;;;;11.83;5.53;;;10.40;99.90;;;;;;4998029;28;20950;-78
2023/04/24 11:32:51;;;;;;;8.87;5.67;;;10.40;99.90;;;;;;5007781;28;20417;-78
2023/04/24 11:35:24;;;;;;;8.70;6.03;;;10.30;99.90;;;;;;4994852;28;20421;-77
2023/04/24 11:37:54;;;;;;;11.03;5.70;;;10.40;99.90;;;;;;4997899;28;21326;-77
2023/04/24 11:40:22;;;;;;;10.60;6.23;;;10.50;99.90;;;;;;5013394;28;20429;-78
2023/04/24 11:42:52;;;;;;;10.43;7.67;;;10.50;99.90;;;;;;5013948;28;20969;-77
2023/04/24 11:45:23;;;;;;;11.50;6.40;;;10.50;99.90;;;;;;5012306;28;20854;-77
2023/04/24 11:47:48;;;;;;;8.53;5.63;;;10.50;99.90;;;;;;5019616;28;20533;-80
2023/04/24 11:50:16;;;;;;;9.50;5.57;;;10.60;99.90;;;;;;5019788;28;20449;-78
2023/04/24 11:52:44;;;;;;;11.87;6.20;;;10.60;99.90;;;;;;5005782;28;20174;-77
2023/04/24 11:55:19;;;;;;;9.67;6.27;;;10.60;99.90;;;;;;5004214;28;20488;-79
2023/04/24 11:57:46;;;;;;;11.20;6.23;;;10.60;99.90;;;;;;5005885;28;20488;-79
2023/04/24 12:00:20;;;;;;;8.10;5.17;;;10.60;99.90;;;;;;5015628;28;20427;-76
2023/04/24 12:02:46;;;;;;;8.40;5.53;;;10.50;99.90;;;;;;5011263;28;20409;-78
2023/04/24 12:05:32;;;;;;;7.57;5.30;;;10.40;99.90;;;;;;5011397;28;20414;-78
2023/04/24 12:07:58;;;;;;;7.87;4.43;;;10.40;99.90;;;;;;4994471;28;20821;-77
2023/04/24 12:10:25;;;;;;;5.83;4.10;;;10.40;99.90;;;;;;5011176;28;20407;-79
2023/04/24 12:12:52;;;;;;;4.43;4.00;;;10.40;99.90;;;;;;4993572;28;20189;-77
2023/04/24 12:15:20;;;;;;;10.13;4.73;;;10.30;99.90;;;;;;5022108;28;20414;-77
2023/04/24 12:17:46;;;;;;;6.97;4.43;;;10.30;99.90;;;;;;5014971;28;20552;-78
2023/04/24 12:20:13;;;;;;;4.57;4.17;;;10.40;99.90;;;;;;5029742;28;20425;-79
2023/04/24 12:22:56;;;;;;;9.63;4.50;;;10.50;99.90;;;;;;5015655;28;20418;-76
2023/04/24 12:25:27;;;;;;;7.60;4.10;;;10.60;99.90;;;;;;4994023;28;20418;-77
2023/04/24 12:28:12;;;;;;;9.17;4.73;;;10.70;99.90;;;;;;4995049;28;20466;-77
2023/04/24 12:30:50;;;;;;;6.10;4.53;;;10.80;99.90;;;;;;4995133;28;20447;-78
2023/04/24 12:33:20;;;;;;;7.93;5.00;;;10.90;99.90;;;;;;4993753;28;20799;-79
2023/04/24 12:35:47;;;;;;;8.23;4.63;;;10.90;99.90;;;;;;4993460;28;20422;-78
2023/04/24 12:38:14;;;;;;;7.00;4.47;;;10.90;99.90;;;;;;4995052;28;20800;-78
2023/04/24 12:40:43;;;;;;;10.13;4.97;;;11.00;99.90;;;;;;4997833;28;20437;-78
2023/04/24 12:43:27;;;;;;;9.20;4.80;;;10.90;99.90;;;;;;5012882;28;20416;-78
2023/04/24 12:45:53;;;;;;;7.17;4.90;;;10.90;99.90;;;;;;5014243;28;20545;-78